ZSPD/PVG METAR and TAF weather

Enter ICAO airport designator
Station Type Date Time Source
ZSPD METAR 2022/11/26 09:30 UTC NOAA

ZSPD 260930Z 05003MPS CAVOK 16/13 Q1018 NOSIG


Station Type Date Time Source
ZSPD Decoded METAR 2022/11/26 09:30 UTC NOAA

Shanghai / Pudong, China (ZSPD) 31-07N 121-46E
Nov 26, 2022 - 04:30 AM EST / 2022.11.26 0930 UTC
Wind: from the NE (050 degrees) at 7 MPH (6 KT):0
Visibility: greater than 7 mile(s):0
Temperature: 60 F (16 C)
Dew Point: 55 F (13 C)
Relative Humidity: 82%
Pressure (altimeter): 30.06 in. Hg (1018 hPa)
ob: ZSPD 260930Z 05003MPS CAVOK 16/13 Q1018 NOSIG
cycle: 9

Station Type Date Time Source
ZSPD TAF 2022/11/26 06:03 UTC NOAA

TAF ZSPD 260308Z 2606/2706 04004MPS 6000 BKN020 TX21/2706Z TN12/2621Z
BECMG 2617/2619 14004MPS

Example: see airport list